sensor_id;sensor_type;location;lat;lon;timestamp;pressure;altitude;pressure_sealevel;temperature;humidity
84419;BME280;74621;52.404;16.896;2023-12-04T00:00:09;101113.0;;;-3.21;84.82
84419;BME280;74621;52.404;16.896;2023-12-04T00:05:09;101110.0;;;-3.28;85.1
84419;BME280;74621;52.404;16.896;2023-12-04T00:10:09;101112.0;;;-3.31;85.29
84419;BME280;74621;52.404;16.896;2023-12-04T00:15:09;101117.0;;;-3.28;85.29
84419;BME280;74621;52.404;16.896;2023-12-04T00:20:09;101118.0;;;-3.31;85.47
84419;BME280;74621;52.404;16.896;2023-12-04T00:25:09;101114.0;;;-3.27;85.3
84419;BME280;74621;52.404;16.896;2023-12-04T00:30:09;101109.0;;;-3.4;85.57
84419;BME280;74621;52.404;16.896;2023-12-04T00:35:09;101110.0;;;-3.44;85.75
84419;BME280;74621;52.404;16.896;2023-12-04T00:40:09;101107.0;;;-3.39;85.63
84419;BME280;74621;52.404;16.896;2023-12-04T00:45:09;101112.0;;;-3.51;85.91
84419;BME280;74621;52.404;16.896;2023-12-04T00:50:09;101119.0;;;-3.49;85.89
84419;BME280;74621;52.404;16.896;2023-12-04T00:55:09;101127.0;;;-3.55;86.03
84419;BME280;74621;52.404;16.896;2023-12-04T01:00:09;101119.0;;;-3.57;86.13
84419;BME280;74621;52.404;16.896;2023-12-04T01:05:09;101126.0;;;-3.52;86.02
84419;BME280;74621;52.404;16.896;2023-12-04T01:10:09;101131.0;;;-3.55;85.92
84419;BME280;74621;52.404;16.896;2023-12-04T01:15:09;101129.0;;;-3.54;86.05
84419;BME280;74621;52.404;16.896;2023-12-04T01:20:09;101121.0;;;-3.52;85.86
84419;BME280;74621;52.404;16.896;2023-12-04T01:25:09;101118.0;;;-3.54;85.86
84419;BME280;74621;52.404;16.896;2023-12-04T01:30:09;101121.0;;;-3.54;86.01
84419;BME280;74621;52.404;16.896;2023-12-04T01:35:09;101128.0;;;-3.54;85.68
84419;BME280;74621;52.404;16.896;2023-12-04T01:40:09;101130.0;;;-3.54;85.52
84419;BME280;74621;52.404;16.896;2023-12-04T01:45:09;101127.0;;;-3.49;85.34
84419;BME280;74621;52.404;16.896;2023-12-04T01:50:09;101129.0;;;-3.48;85.0
84419;BME280;74621;52.404;16.896;2023-12-04T01:55:09;101135.0;;;-3.55;84.99
84419;BME280;74621;52.404;16.896;2023-12-04T02:00:09;101127.0;;;-3.5;85.01
84419;BME280;74621;52.404;16.896;2023-12-04T02:05:09;101127.0;;;-3.56;85.02
84419;BME280;74621;52.404;16.896;2023-12-04T02:10:09;101135.0;;;-3.54;85.05
84419;BME280;74621;52.404;16.896;2023-12-04T02:15:09;101134.0;;;-3.6;85.32
84419;BME280;74621;52.404;16.896;2023-12-04T02:20:09;101125.0;;;-3.57;85.28
84419;BME280;74621;52.404;16.896;2023-12-04T02:25:09;101132.0;;;-3.47;84.88
84419;BME280;74621;52.404;16.896;2023-12-04T02:30:09;101132.0;;;-3.51;85.06
84419;BME280;74621;52.404;16.896;2023-12-04T02:35:09;101134.0;;;-3.41;84.85
84419;BME280;74621;52.404;16.896;2023-12-04T02:40:09;101134.0;;;-3.54;85.35
84419;BME280;74621;52.404;16.896;2023-12-04T02:45:09;101133.0;;;-3.58;85.66
84419;BME280;74621;52.404;16.896;2023-12-04T02:50:09;101123.0;;;-3.59;85.66
84419;BME280;74621;52.404;16.896;2023-12-04T02:55:09;101119.0;;;-3.55;85.54
84419;BME280;74621;52.404;16.896;2023-12-04T03:00:09;101113.0;;;-3.61;85.71
84419;BME280;74621;52.404;16.896;2023-12-04T03:05:09;101114.0;;;-3.64;85.83
84419;BME280;74621;52.404;16.896;2023-12-04T03:10:09;101105.0;;;-3.63;85.76
84419;BME280;74621;52.404;16.896;2023-12-04T03:15:10;101111.0;;;-3.63;86.11
84419;BME280;74621;52.404;16.896;2023-12-04T03:20:09;101120.0;;;-3.69;86.17
84419;BME280;74621;52.404;16.896;2023-12-04T03:25:09;101124.0;;;-3.72;86.39
84419;BME280;74621;52.404;16.896;2023-12-04T03:30:09;101124.0;;;-3.67;86.39
84419;BME280;74621;52.404;16.896;2023-12-04T03:35:09;101126.0;;;-3.73;86.58
84419;BME280;74621;52.404;16.896;2023-12-04T03:40:09;101122.0;;;-3.67;86.29
84419;BME280;74621;52.404;16.896;2023-12-04T03:45:09;101114.0;;;-3.74;86.36
84419;BME280;74621;52.404;16.896;2023-12-04T03:50:09;101123.0;;;-3.85;86.59
84419;BME280;74621;52.404;16.896;2023-12-04T03:55:09;101112.0;;;-3.81;86.46
84419;BME280;74621;52.404;16.896;2023-12-04T04:00:09;101106.0;;;-3.87;86.42
84419;BME280;74621;52.404;16.896;2023-12-04T04:05:09;101115.0;;;-3.84;86.52
84419;BME280;74621;52.404;16.896;2023-12-04T04:10:09;101112.0;;;-3.9;86.58
84419;BME280;74621;52.404;16.896;2023-12-04T04:15:09;101109.0;;;-3.96;86.5
84419;BME280;74621;52.404;16.896;2023-12-04T04:20:09;101116.0;;;-3.89;86.54
84419;BME280;74621;52.404;16.896;2023-12-04T04:25:09;101111.0;;;-3.95;86.48
84419;BME280;74621;52.404;16.896;2023-12-04T04:30:09;101106.0;;;-3.91;86.61
84419;BME280;74621;52.404;16.896;2023-12-04T04:35:09;101096.0;;;-3.89;86.3
84419;BME280;74621;52.404;16.896;2023-12-04T04:40:09;101094.0;;;-3.9;86.18
84419;BME280;74621;52.404;16.896;2023-12-04T04:45:09;101089.0;;;-3.98;86.13
84419;BME280;74621;52.404;16.896;2023-12-04T04:50:09;101096.0;;;-4.07;86.37
84419;BME280;74621;52.404;16.896;2023-12-04T04:55:09;101099.0;;;-4.11;86.51
84419;BME280;74621;52.404;16.896;2023-12-04T05:00:09;101104.0;;;-4.12;86.53
84419;BME280;74621;52.404;16.896;2023-12-04T05:05:09;101101.0;;;-4.15;86.42
84419;BME280;74621;52.404;16.896;2023-12-04T05:10:09;101094.0;;;-4.34;86.74
84419;BME280;74621;52.404;16.896;2023-12-04T05:15:09;101083.0;;;-4.32;86.97
84419;BME280;74621;52.404;16.896;2023-12-04T05:20:09;101095.0;;;-4.36;86.72
84419;BME280;74621;52.404;16.896;2023-12-04T05:25:09;101092.0;;;-4.31;86.92
84419;BME280;74621;52.404;16.896;2023-12-04T05:30:09;101081.0;;;-4.32;86.49
84419;BME280;74621;52.404;16.896;2023-12-04T05:35:09;101081.0;;;-4.39;86.51
84419;BME280;74621;52.404;16.896;2023-12-04T05:40:09;101085.0;;;-4.34;86.4
84419;BME280;74621;52.404;16.896;2023-12-04T05:45:09;101087.0;;;-4.37;86.25
84419;BME280;74621;52.404;16.896;2023-12-04T05:50:09;101091.0;;;-4.31;86.43
84419;BME280;74621;52.404;16.896;2023-12-04T05:55:09;101091.0;;;-4.37;86.63
84419;BME280;74621;52.404;16.896;2023-12-04T06:00:09;101095.0;;;-4.34;86.47
84419;BME280;74621;52.404;16.896;2023-12-04T06:05:09;101078.0;;;-4.31;86.43
84419;BME280;74621;52.404;16.896;2023-12-04T06:10:09;101071.0;;;-4.32;86.16
84419;BME280;74621;52.404;16.896;2023-12-04T06:15:09;101074.0;;;-4.27;86.11
84419;BME280;74621;52.404;16.896;2023-12-04T06:20:09;101075.0;;;-4.24;86.04
84419;BME280;74621;52.404;16.896;2023-12-04T06:25:09;101073.0;;;-4.28;86.08
84419;BME280;74621;52.404;16.896;2023-12-04T06:30:09;101070.0;;;-4.22;86.05
84419;BME280;74621;52.404;16.896;2023-12-04T06:35:09;101065.0;;;-4.18;86.0
84419;BME280;74621;52.404;16.896;2023-12-04T06:40:09;101069.0;;;-4.1;86.16
84419;BME280;74621;52.404;16.896;2023-12-04T06:45:09;101068.0;;;-4.05;86.1
84419;BME280;74621;52.404;16.896;2023-12-04T06:50:09;101069.0;;;-4.01;85.98
84419;BME280;74621;52.404;16.896;2023-12-04T06:55:09;101071.0;;;-3.99;86.19
84419;BME280;74621;52.404;16.896;2023-12-04T07:00:09;101071.0;;;-3.88;86.14
84419;BME280;74621;52.404;16.896;2023-12-04T07:05:09;101078.0;;;-3.88;86.37
84419;BME280;74621;52.404;16.896;2023-12-04T07:10:09;101080.0;;;-3.81;86.25
84419;BME280;74621;52.404;16.896;2023-12-04T07:15:09;101085.0;;;-3.75;86.05
84419;BME280;74621;52.404;16.896;2023-12-04T07:20:09;101090.0;;;-3.66;85.91
84419;BME280;74621;52.404;16.896;2023-12-04T07:25:09;101078.0;;;-3.61;86.0
84419;BME280;74621;52.404;16.896;2023-12-04T07:30:09;101087.0;;;-3.53;85.84
84419;BME280;74621;52.404;16.896;2023-12-04T07:35:09;101081.0;;;-3.44;85.69
84419;BME280;74621;52.404;16.896;2023-12-04T07:40:09;101087.0;;;-3.42;85.47
84419;BME280;74621;52.404;16.896;2023-12-04T07:45:09;101088.0;;;-3.4;85.67
84419;BME280;74621;52.404;16.896;2023-12-04T07:50:09;101091.0;;;-3.32;85.47
84419;BME280;74621;52.404;16.896;2023-12-04T07:55:09;101091.0;;;-3.2;85.06
84419;BME280;74621;52.404;16.896;2023-12-04T08:00:09;101093.0;;;-3.16;84.65
84419;BME280;74621;52.404;16.896;2023-12-04T08:05:09;101096.0;;;-3.07;84.5
84419;BME280;74621;52.404;16.896;2023-12-04T08:10:09;101105.0;;;-3.1;84.41
84419;BME280;74621;52.404;16.896;2023-12-04T08:15:09;101110.0;;;-3.03;84.34
84419;BME280;74621;52.404;16.896;2023-12-04T08:20:09;101106.0;;;-3.12;84.41
84419;BME280;74621;52.404;16.896;2023-12-04T08:25:09;101111.0;;;-3.03;84.45
84419;BME280;74621;52.404;16.896;2023-12-04T08:30:09;101109.0;;;-2.91;83.98
84419;BME280;74621;52.404;16.896;2023-12-04T08:35:09;101111.0;;;-2.83;83.85
84419;BME280;74621;52.404;16.896;2023-12-04T08:40:09;101111.0;;;-2.86;83.72
84419;BME280;74621;52.404;16.896;2023-12-04T08:45:09;101104.0;;;-2.73;83.63
84419;BME280;74621;52.404;16.896;2023-12-04T08:50:09;101105.0;;;-2.58;82.7
84419;BME280;74621;52.404;16.896;2023-12-04T08:55:09;101109.0;;;-2.57;82.46
84419;BME280;74621;52.404;16.896;2023-12-04T09:00:09;101104.0;;;-2.58;82.24
84419;BME280;74621;52.404;16.896;2023-12-04T09:05:09;101097.0;;;-2.59;82.18
84419;BME280;74621;52.404;16.896;2023-12-04T09:10:09;101096.0;;;-2.57;82.23
84419;BME280;74621;52.404;16.896;2023-12-04T09:15:09;101099.0;;;-2.63;81.77
84419;BME280;74621;52.404;16.896;2023-12-04T09:20:09;101097.0;;;-2.52;81.81
84419;BME280;74621;52.404;16.896;2023-12-04T09:25:09;101100.0;;;-2.45;81.21
84419;BME280;74621;52.404;16.896;2023-12-04T09:30:09;101095.0;;;-2.38;80.72
84419;BME280;74621;52.404;16.896;2023-12-04T09:35:09;101097.0;;;-2.26;80.94
84419;BME280;74621;52.404;16.896;2023-12-04T09:40:09;101089.0;;;-2.12;80.06
84419;BME280;74621;52.404;16.896;2023-12-04T09:45:09;101086.0;;;-2.0;79.55
84419;BME280;74621;52.404;16.896;2023-12-04T09:50:09;101088.0;;;-1.81;77.9
84419;BME280;74621;52.404;16.896;2023-12-04T09:55:09;101085.0;;;-1.73;76.38
84419;BME280;74621;52.404;16.896;2023-12-04T10:00:09;101082.0;;;-1.54;75.62
84419;BME280;74621;52.404;16.896;2023-12-04T10:05:09;101078.0;;;-1.24;74.59
84419;BME280;74621;52.404;16.896;2023-12-04T10:10:09;101061.0;;;-0.75;74.59
84419;BME280;74621;52.404;16.896;2023-12-04T10:15:09;101051.0;;;0.15;71.85
84419;BME280;74621;52.404;16.896;2023-12-04T10:20:09;101052.0;;;1.07;68.86
84419;BME280;74621;52.404;16.896;2023-12-04T10:25:09;101050.0;;;2.0;65.06
84419;BME280;74621;52.404;16.896;2023-12-04T10:30:09;101040.0;;;2.65;60.93
84419;BME280;74621;52.404;16.896;2023-12-04T10:35:09;101029.0;;;3.43;59.55
84419;BME280;74621;52.404;16.896;2023-12-04T10:40:09;101034.0;;;4.03;57.85
84419;BME280;74621;52.404;16.896;2023-12-04T10:45:09;101034.0;;;4.68;55.15
84419;BME280;74621;52.404;16.896;2023-12-04T10:50:09;101025.0;;;5.17;53.68
84419;BME280;74621;52.404;16.896;2023-12-04T10:55:09;101026.0;;;5.68;51.94
84419;BME280;74621;52.404;16.896;2023-12-04T11:00:09;101021.0;;;6.0;49.4
84419;BME280;74621;52.404;16.896;2023-12-04T11:05:09;101020.0;;;6.09;49.15
84419;BME280;74621;52.404;16.896;2023-12-04T11:10:09;101018.0;;;6.23;48.0
84419;BME280;74621;52.404;16.896;2023-12-04T11:15:09;101018.0;;;5.98;47.62
84419;BME280;74621;52.404;16.896;2023-12-04T11:20:09;101008.0;;;6.16;47.78
84419;BME280;74621;52.404;16.896;2023-12-04T11:25:09;101017.0;;;6.39;46.58
84419;BME280;74621;52.404;16.896;2023-12-04T11:30:09;101010.0;;;6.42;46.82
84419;BME280;74621;52.404;16.896;2023-12-04T11:35:09;100997.0;;;6.46;46.46
84419;BME280;74621;52.404;16.896;2023-12-04T11:40:09;100991.0;;;6.77;45.8
84419;BME280;74621;52.404;16.896;2023-12-04T11:45:09;100988.0;;;6.56;46.25
84419;BME280;74621;52.404;16.896;2023-12-04T11:50:09;100975.0;;;6.68;46.56
84419;BME280;74621;52.404;16.896;2023-12-04T11:55:09;100970.0;;;7.21;46.01
84419;BME280;74621;52.404;16.896;2023-12-04T12:00:09;100971.0;;;7.6;44.31
84419;BME280;74621;52.404;16.896;2023-12-04T12:05:09;100966.0;;;7.88;43.32
84419;BME280;74621;52.404;16.896;2023-12-04T12:10:09;100955.0;;;7.86;43.17
84419;BME280;74621;52.404;16.896;2023-12-04T12:15:09;100939.0;;;7.3;43.51
84419;BME280;74621;52.404;16.896;2023-12-04T12:20:09;100934.0;;;6.87;44.69
84419;BME280;74621;52.404;16.896;2023-12-04T12:25:09;100938.0;;;6.6;45.07
84419;BME280;74621;52.404;16.896;2023-12-04T12:30:09;100921.0;;;5.94;44.33
84419;BME280;74621;52.404;16.896;2023-12-04T12:35:09;100916.0;;;5.27;46.15
84419;BME280;74621;52.404;16.896;2023-12-04T12:40:09;100911.0;;;4.73;47.14
84419;BME280;74621;52.404;16.896;2023-12-04T12:45:09;100914.0;;;3.93;48.43
84419;BME280;74621;52.404;16.896;2023-12-04T12:50:09;100915.0;;;3.48;49.99
84419;BME280;74621;52.404;16.896;2023-12-04T12:55:09;100913.0;;;3.59;50.52
84419;BME280;74621;52.404;16.896;2023-12-04T13:00:09;100900.0;;;4.0;49.45
84419;BME280;74621;52.404;16.896;2023-12-04T13:05:09;100888.0;;;4.62;48.6
84419;BME280;74621;52.404;16.896;2023-12-04T13:10:09;100879.0;;;4.7;47.63
84419;BME280;74621;52.404;16.896;2023-12-04T13:15:09;100872.0;;;4.46;47.52
84419;BME280;74621;52.404;16.896;2023-12-04T13:20:09;100866.0;;;3.86;48.57
84419;BME280;74621;52.404;16.896;2023-12-04T13:25:09;100865.0;;;3.32;50.03
84419;BME280;74621;52.404;16.896;2023-12-04T13:30:09;100866.0;;;2.97;51.33
84419;BME280;74621;52.404;16.896;2023-12-04T13:35:09;100857.0;;;2.4;52.45
84419;BME280;74621;52.404;16.896;2023-12-04T13:40:09;100845.0;;;1.91;54.27
84419;BME280;74621;52.404;16.896;2023-12-04T13:45:09;100850.0;;;1.61;55.42
84419;BME280;74621;52.404;16.896;2023-12-04T13:50:09;100847.0;;;1.44;56.14
84419;BME280;74621;52.404;16.896;2023-12-04T13:55:09;100843.0;;;1.27;57.12
84419;BME280;74621;52.404;16.896;2023-12-04T14:00:09;100840.0;;;1.01;58.22
84419;BME280;74621;52.404;16.896;2023-12-04T14:05:09;100841.0;;;0.77;59.44
84419;BME280;74621;52.404;16.896;2023-12-04T14:10:09;100845.0;;;0.47;60.33
84419;BME280;74621;52.404;16.896;2023-12-04T14:15:09;100850.0;;;0.23;60.7
84419;BME280;74621;52.404;16.896;2023-12-04T14:20:09;100845.0;;;0.08;61.59
84419;BME280;74621;52.404;16.896;2023-12-04T14:25:09;100845.0;;;-0.28;62.23
84419;BME280;74621;52.404;16.896;2023-12-04T14:30:09;100846.0;;;-0.49;62.63
84419;BME280;74621;52.404;16.896;2023-12-04T14:35:09;100837.0;;;-0.7;63.73
84419;BME280;74621;52.404;16.896;2023-12-04T14:40:09;100831.0;;;-0.94;64.51
84419;BME280;74621;52.404;16.896;2023-12-04T14:45:09;100824.0;;;-1.15;65.31
84419;BME280;74621;52.404;16.896;2023-12-04T14:50:09;100821.0;;;-1.26;65.56
84419;BME280;74621;52.404;16.896;2023-12-04T14:55:09;100811.0;;;-1.37;66.09
84419;BME280;74621;52.404;16.896;2023-12-04T15:00:09;100811.0;;;-1.48;67.0
84419;BME280;74621;52.404;16.896;2023-12-04T15:05:09;100807.0;;;-1.57;67.44
84419;BME280;74621;52.404;16.896;2023-12-04T15:10:09;100809.0;;;-1.65;67.92
84419;BME280;74621;52.404;16.896;2023-12-04T15:15:09;100812.0;;;-1.67;68.02
84419;BME280;74621;52.404;16.896;2023-12-04T15:20:09;100810.0;;;-1.72;68.09
84419;BME280;74621;52.404;16.896;2023-12-04T15:25:09;100807.0;;;-1.7;68.55
84419;BME280;74621;52.404;16.896;2023-12-04T15:30:09;100798.0;;;-1.78;68.74
84419;BME280;74621;52.404;16.896;2023-12-04T15:35:09;100793.0;;;-1.84;69.1
84419;BME280;74621;52.404;16.896;2023-12-04T15:40:09;100793.0;;;-1.79;69.19
84419;BME280;74621;52.404;16.896;2023-12-04T15:45:09;100785.0;;;-1.85;69.34
84419;BME280;74621;52.404;16.896;2023-12-04T15:50:09;100784.0;;;-1.83;69.44
84419;BME280;74621;52.404;16.896;2023-12-04T15:55:09;100783.0;;;-1.87;69.57
84419;BME280;74621;52.404;16.896;2023-12-04T16:00:09;100783.0;;;-1.86;69.08
84419;BME280;74621;52.404;16.896;2023-12-04T16:05:09;100783.0;;;-1.87;69.56
84419;BME280;74621;52.404;16.896;2023-12-04T16:10:09;100779.0;;;-1.89;69.46
84419;BME280;74621;52.404;16.896;2023-12-04T16:15:09;100780.0;;;-1.9;69.61
84419;BME280;74621;52.404;16.896;2023-12-04T16:20:09;100777.0;;;-1.92;69.79
84419;BME280;74621;52.404;16.896;2023-12-04T16:25:09;100783.0;;;-1.99;70.08
84419;BME280;74621;52.404;16.896;2023-12-04T16:30:09;100785.0;;;-2.02;70.31
84419;BME280;74621;52.404;16.896;2023-12-04T16:35:09;100786.0;;;-2.11;70.43
84419;BME280;74621;52.404;16.896;2023-12-04T16:40:09;100777.0;;;-2.14;70.63
84419;BME280;74621;52.404;16.896;2023-12-04T16:45:09;100767.0;;;-2.14;70.91
84419;BME280;74621;52.404;16.896;2023-12-04T16:50:09;100773.0;;;-2.17;71.62
84419;BME280;74621;52.404;16.896;2023-12-04T16:55:09;100763.0;;;-2.19;71.47
84419;BME280;74621;52.404;16.896;2023-12-04T17:00:09;100750.0;;;-2.22;71.96
84419;BME280;74621;52.404;16.896;2023-12-04T17:05:09;100737.0;;;-2.28;72.26
84419;BME280;74621;52.404;16.896;2023-12-04T17:10:09;100729.0;;;-2.32;72.48
84419;BME280;74621;52.404;16.896;2023-12-04T17:15:09;100719.0;;;-2.42;72.75
84419;BME280;74621;52.404;16.896;2023-12-04T17:20:09;100712.0;;;-2.43;72.68
84419;BME280;74621;52.404;16.896;2023-12-04T17:25:09;100701.0;;;-2.52;72.98
84419;BME280;74621;52.404;16.896;2023-12-04T17:30:09;100696.0;;;-2.6;73.02
84419;BME280;74621;52.404;16.896;2023-12-04T17:35:09;100706.0;;;-2.54;73.0
84419;BME280;74621;52.404;16.896;2023-12-04T17:40:09;100710.0;;;-2.63;72.91
84419;BME280;74621;52.404;16.896;2023-12-04T17:45:09;100701.0;;;-2.67;73.05
84419;BME280;74621;52.404;16.896;2023-12-04T17:50:09;100702.0;;;-2.69;73.51
84419;BME280;74621;52.404;16.896;2023-12-04T17:55:09;100701.0;;;-2.72;73.14
84419;BME280;74621;52.404;16.896;2023-12-04T18:00:09;100690.0;;;-2.76;73.44
84419;BME280;74621;52.404;16.896;2023-12-04T18:05:09;100691.0;;;-2.73;74.57
84419;BME280;74621;52.404;16.896;2023-12-04T18:10:09;100690.0;;;-2.74;73.49
84419;BME280;74621;52.404;16.896;2023-12-04T18:15:09;100687.0;;;-2.71;73.59
84419;BME280;74621;52.404;16.896;2023-12-04T18:20:09;100681.0;;;-2.79;73.74
84419;BME280;74621;52.404;16.896;2023-12-04T18:25:09;100689.0;;;-2.86;73.99
84419;BME280;74621;52.404;16.896;2023-12-04T18:30:09;100686.0;;;-2.89;74.13
84419;BME280;74621;52.404;16.896;2023-12-04T18:35:09;100691.0;;;-2.91;74.33
84419;BME280;74621;52.404;16.896;2023-12-04T18:40:09;100684.0;;;-2.93;74.54
84419;BME280;74621;52.404;16.896;2023-12-04T18:45:09;100677.0;;;-2.96;74.66
84419;BME280;74621;52.404;16.896;2023-12-04T18:50:09;100675.0;;;-3.0;74.64
84419;BME280;74621;52.404;16.896;2023-12-04T18:55:09;100677.0;;;-3.01;75.18
84419;BME280;74621;52.404;16.896;2023-12-04T19:00:09;100663.0;;;-3.07;75.4
84419;BME280;74621;52.404;16.896;2023-12-04T19:05:09;100665.0;;;-3.07;75.55
84419;BME280;74621;52.404;16.896;2023-12-04T19:10:09;100656.0;;;-3.08;75.7
84419;BME280;74621;52.404;16.896;2023-12-04T19:15:09;100653.0;;;-3.08;75.61
84419;BME280;74621;52.404;16.896;2023-12-04T19:20:09;100655.0;;;-3.01;75.69
84419;BME280;74621;52.404;16.896;2023-12-04T19:25:09;100648.0;;;-3.08;75.6
84419;BME280;74621;52.404;16.896;2023-12-04T19:30:09;100640.0;;;-3.04;75.75
84419;BME280;74621;52.404;16.896;2023-12-04T19:35:09;100644.0;;;-3.09;75.84
84419;BME280;74621;52.404;16.896;2023-12-04T19:40:09;100638.0;;;-3.08;75.57
84419;BME280;74621;52.404;16.896;2023-12-04T19:45:09;100639.0;;;-3.1;75.81
84419;BME280;74621;52.404;16.896;2023-12-04T19:50:09;100631.0;;;-3.13;75.8
84419;BME280;74621;52.404;16.896;2023-12-04T19:55:09;100626.0;;;-3.12;75.71
84419;BME280;74621;52.404;16.896;2023-12-04T20:00:10;100617.0;;;-3.12;75.76
84419;BME280;74621;52.404;16.896;2023-12-04T20:05:09;100616.0;;;-3.11;75.75
84419;BME280;74621;52.404;16.896;2023-12-04T20:10:09;100611.0;;;-3.13;75.6
84419;BME280;74621;52.404;16.896;2023-12-04T20:15:09;100605.0;;;-3.07;75.55
84419;BME280;74621;52.404;16.896;2023-12-04T20:20:09;100603.0;;;-3.09;75.62
84419;BME280;74621;52.404;16.896;2023-12-04T20:25:09;100602.0;;;-3.03;75.49
84419;BME280;74621;52.404;16.896;2023-12-04T20:30:09;100610.0;;;-3.09;75.4
84419;BME280;74621;52.404;16.896;2023-12-04T20:35:09;100601.0;;;-3.05;75.55
84419;BME280;74621;52.404;16.896;2023-12-04T20:40:09;100597.0;;;-3.01;75.02
84419;BME280;74621;52.404;16.896;2023-12-04T20:45:09;100602.0;;;-3.04;75.05
84419;BME280;74621;52.404;16.896;2023-12-04T20:50:09;100606.0;;;-2.98;74.66
84419;BME280;74621;52.404;16.896;2023-12-04T20:55:09;100599.0;;;-3.04;74.71
84419;BME280;74621;52.404;16.896;2023-12-04T21:00:09;100593.0;;;-3.07;74.83
84419;BME280;74621;52.404;16.896;2023-12-04T21:05:09;100591.0;;;-3.1;74.94
84419;BME280;74621;52.404;16.896;2023-12-04T21:10:09;100587.0;;;-3.13;74.94
84419;BME280;74621;52.404;16.896;2023-12-04T21:15:09;100588.0;;;-3.13;74.86
84419;BME280;74621;52.404;16.896;2023-12-04T21:20:09;100579.0;;;-3.11;74.8
84419;BME280;74621;52.404;16.896;2023-12-04T21:25:09;100573.0;;;-3.12;74.84
84419;BME280;74621;52.404;16.896;2023-12-04T21:30:09;100566.0;;;-3.1;74.9
84419;BME280;74621;52.404;16.896;2023-12-04T21:35:09;100558.0;;;-3.14;74.87
84419;BME280;74621;52.404;16.896;2023-12-04T21:40:09;100548.0;;;-3.14;74.77
84419;BME280;74621;52.404;16.896;2023-12-04T21:45:09;100546.0;;;-3.13;74.86
84419;BME280;74621;52.404;16.896;2023-12-04T21:50:09;100536.0;;;-3.17;74.79
84419;BME280;74621;52.404;16.896;2023-12-04T21:55:09;100520.0;;;-3.15;74.84
84419;BME280;74621;52.404;16.896;2023-12-04T22:00:09;100523.0;;;-3.14;74.59
84419;BME280;74621;52.404;16.896;2023-12-04T22:05:09;100520.0;;;-3.16;74.54
84419;BME280;74621;52.404;16.896;2023-12-04T22:10:09;100517.0;;;-3.16;74.61
84419;BME280;74621;52.404;16.896;2023-12-04T22:15:09;100509.0;;;-3.19;74.45
84419;BME280;74621;52.404;16.896;2023-12-04T22:20:09;100511.0;;;-3.17;74.43
84419;BME280;74621;52.404;16.896;2023-12-04T22:25:09;100501.0;;;-3.15;74.33
84419;BME280;74621;52.404;16.896;2023-12-04T22:30:09;100501.0;;;-3.2;74.4
84419;BME280;74621;52.404;16.896;2023-12-04T22:35:09;100496.0;;;-3.12;74.28
84419;BME280;74621;52.404;16.896;2023-12-04T22:40:09;100492.0;;;-3.16;74.25
84419;BME280;74621;52.404;16.896;2023-12-04T22:45:09;100492.0;;;-3.13;74.18
84419;BME280;74621;52.404;16.896;2023-12-04T22:50:09;100491.0;;;-3.11;73.9
84419;BME280;74621;52.404;16.896;2023-12-04T22:55:09;100483.0;;;-3.13;74.02
84419;BME280;74621;52.404;16.896;2023-12-04T23:00:09;100480.0;;;-3.13;73.97
84419;BME280;74621;52.404;16.896;2023-12-04T23:05:09;100479.0;;;-3.15;73.95
84419;BME280;74621;52.404;16.896;2023-12-04T23:10:09;100475.0;;;-3.14;73.96
84419;BME280;74621;52.404;16.896;2023-12-04T23:15:09;100471.0;;;-3.1;74.04
84419;BME280;74621;52.404;16.896;2023-12-04T23:20:09;100475.0;;;-3.13;74.0
84419;BME280;74621;52.404;16.896;2023-12-04T23:25:09;100476.0;;;-3.12;74.06
84419;BME280;74621;52.404;16.896;2023-12-04T23:30:09;100460.0;;;-3.09;73.79
84419;BME280;74621;52.404;16.896;2023-12-04T23:35:09;100453.0;;;-3.1;73.75
84419;BME280;74621;52.404;16.896;2023-12-04T23:40:09;100458.0;;;-3.05;73.6
84419;BME280;74621;52.404;16.896;2023-12-04T23:45:09;100451.0;;;-3.05;73.69
84419;BME280;74621;52.404;16.896;2023-12-04T23:50:09;100436.0;;;-3.09;73.59
84419;BME280;74621;52.404;16.896;2023-12-04T23:55:09;100436.0;;;-3.07;73.54
